createdAt,value
2023-10-10T00:01:08.566Z,1.98
2023-10-10T00:03:41.283Z,2.15
2023-10-10T00:06:09.664Z,1.92
2023-10-10T00:08:42.589Z,1.65
2023-10-10T00:11:11.375Z,2.10
2023-10-10T00:13:44.787Z,2.00
2023-10-10T00:16:13.244Z,1.80
2023-10-10T00:18:44.770Z,2.05
2023-10-10T00:21:18.638Z,2.10
2023-10-10T00:23:48.614Z,1.90
2023-10-10T00:26:16.374Z,2.00
2023-10-10T00:28:46.177Z,2.10
2023-10-10T00:31:19.056Z,1.90
2023-10-10T00:33:47.255Z,1.85
2023-10-10T00:36:15.659Z,2.08
2023-10-10T00:38:43.593Z,2.42
2023-10-10T00:41:12.429Z,2.20
2023-10-10T00:43:39.292Z,2.22
2023-10-10T00:46:06.167Z,2.22
2023-10-10T00:48:35.600Z,1.90
2023-10-10T00:51:11.640Z,2.20
2023-10-10T00:53:42.296Z,2.00
2023-10-10T00:56:09.295Z,2.33
2023-10-10T00:58:37.591Z,2.10
2023-10-10T01:01:09.014Z,2.30
2023-10-10T01:03:38.162Z,2.33
2023-10-10T01:06:08.890Z,2.65
2023-10-10T01:08:54.656Z,2.58
2023-10-10T01:11:21.392Z,2.50
2023-10-10T01:13:48.055Z,2.08
2023-10-10T01:16:14.636Z,2.20
2023-10-10T01:18:52.558Z,2.40
2023-10-10T01:21:31.290Z,2.20
2023-10-10T01:24:07.021Z,2.78
2023-10-10T01:29:15.249Z,2.47
2023-10-10T01:31:43.413Z,2.40
2023-10-10T01:34:24.794Z,2.50
2023-10-10T01:36:51.868Z,3.00
2023-10-10T01:39:28.386Z,2.47
2023-10-10T01:41:55.008Z,2.40
2023-10-10T01:44:24.801Z,2.75
2023-10-10T01:46:54.681Z,2.58
2023-10-10T01:49:22.490Z,2.83
2023-10-10T01:52:00.007Z,3.30
2023-10-10T01:54:40.597Z,2.83
2023-10-10T01:57:08.825Z,3.05
2023-10-10T01:59:40.089Z,3.35
2023-10-10T02:02:11.315Z,3.13
2023-10-10T02:04:38.372Z,3.28
2023-10-10T02:07:15.326Z,3.08
2023-10-10T02:09:44.603Z,2.85
2023-10-10T02:12:17.373Z,3.40
2023-10-10T02:14:44.404Z,3.85
2023-10-10T02:17:23.496Z,3.33
2023-10-10T02:20:19.631Z,3.70
2023-10-10T02:22:49.203Z,3.22
2023-10-10T02:28:21.542Z,2.95
2023-10-10T02:30:53.083Z,3.60
2023-10-10T02:33:20.173Z,3.65
2023-10-10T02:35:55.066Z,4.00
2023-10-10T02:38:24.155Z,3.60
2023-10-10T02:40:56.792Z,4.25
2023-10-10T02:43:47.062Z,3.10
2023-10-10T02:46:19.398Z,3.70
2023-10-10T02:48:46.177Z,4.03
2023-10-10T02:51:17.189Z,3.70
2023-10-10T02:53:47.831Z,4.13
2023-10-10T02:56:18.692Z,4.85
2023-10-10T02:58:46.388Z,4.80
2023-10-10T03:01:28.170Z,4.22
2023-10-10T03:03:56.298Z,4.78
2023-10-10T03:06:29.420Z,4.68
2023-10-10T03:09:08.305Z,4.57
2023-10-10T03:11:42.067Z,4.82
2023-10-10T03:14:09.264Z,5.13
2023-10-10T03:16:45.341Z,5.47
2023-10-10T03:19:12.135Z,4.47
2023-10-10T03:21:38.857Z,4.85
2023-10-10T03:24:16.628Z,4.03
2023-10-10T03:26:43.330Z,4.85
2023-10-10T03:29:21.693Z,5.80
2023-10-10T03:31:56.962Z,5.18
2023-10-10T03:34:45.613Z,4.70
2023-10-10T03:37:29.186Z,4.30
2023-10-10T03:39:58.887Z,4.78
2023-10-10T03:42:44.923Z,4.65
2023-10-10T03:45:30.340Z,4.43
2023-10-10T03:48:15.758Z,4.13
2023-10-10T03:51:03.520Z,4.47
2023-10-10T03:53:49.542Z,4.35
2023-10-10T03:56:36.781Z,5.40
2023-10-10T03:59:23.334Z,5.03
2023-10-10T04:02:09.249Z,4.45
2023-10-10T04:04:55.147Z,4.03
2023-10-10T04:07:42.121Z,4.70
2023-10-10T04:10:46.709Z,4.32
2023-10-10T04:13:32.287Z,4.60
2023-10-10T04:16:17.560Z,4.28
2023-10-10T04:19:02.849Z,4.10
2023-10-10T04:22:02.129Z,4.22
2023-10-10T04:24:47.284Z,4.53
2023-10-10T04:27:32.616Z,4.45
2023-10-10T04:30:18.037Z,4.63
2023-10-10T04:33:03.528Z,4.18
2023-10-10T04:35:48.659Z,4.15
2023-10-10T04:38:34.237Z,3.92
2023-10-10T04:41:19.415Z,4.10
2023-10-10T04:44:04.651Z,4.00
2023-10-10T04:46:50.258Z,4.53
2023-10-10T04:49:35.730Z,5.03
2023-10-10T04:52:21.392Z,4.20
2023-10-10T04:55:06.792Z,3.88
2023-10-10T04:57:52.297Z,4.55
2023-10-10T05:00:37.871Z,4.63
2023-10-10T05:03:23.311Z,4.55
2023-10-10T05:06:15.150Z,5.20
2023-10-10T05:09:00.787Z,4.30
2023-10-10T05:11:46.474Z,4.40
2023-10-10T05:14:32.016Z,4.10
2023-10-10T05:17:17.425Z,4.57
2023-10-10T05:20:02.716Z,4.45
2023-10-10T05:22:48.274Z,5.00
2023-10-10T05:25:15.207Z,4.20
2023-10-10T05:27:44.706Z,4.53
2023-10-10T05:30:24.528Z,4.03
2023-10-10T05:33:05.251Z,4.43
2023-10-10T05:35:38.125Z,4.88
2023-10-10T05:38:08.455Z,5.88
2023-10-10T05:40:35.633Z,5.15
2023-10-10T05:43:04.157Z,5.10
2023-10-10T05:45:31.501Z,6.30
2023-10-10T05:47:58.734Z,5.32
2023-10-10T05:50:25.857Z,5.78
2023-10-10T05:52:53.093Z,5.38
2023-10-10T05:55:19.883Z,5.57
2023-10-10T05:57:47.113Z,5.95
2023-10-10T06:00:15.096Z,6.30
2023-10-10T06:02:48.193Z,5.25
2023-10-10T06:05:18.511Z,5.63
2023-10-10T06:07:45.537Z,4.82
2023-10-10T06:10:19.993Z,5.97
2023-10-10T06:12:48.471Z,5.88
2023-10-10T06:15:18.919Z,6.00
2023-10-10T06:17:46.408Z,6.07
2023-10-10T06:20:23.076Z,5.55
2023-10-10T06:22:50.270Z,5.43
2023-10-10T06:25:18.693Z,6.10
2023-10-10T06:27:46.514Z,6.28
2023-10-10T06:30:18.793Z,4.78
2023-10-10T06:32:48.217Z,6.32
2023-10-10T06:38:03.673Z,5.85
2023-10-10T06:40:30.389Z,6.72
2023-10-10T06:42:59.563Z,5.68
2023-10-10T06:45:38.598Z,5.72
2023-10-10T06:48:05.601Z,6.38
2023-10-10T06:50:39.842Z,6.63
2023-10-10T06:53:06.540Z,6.93
2023-10-10T06:55:38.076Z,5.90
2023-10-10T06:58:06.603Z,5.82
2023-10-10T07:00:53.568Z,6.50
2023-10-10T07:03:31.440Z,7.22
2023-10-10T07:05:58.202Z,6.65
2023-10-10T07:08:27.718Z,7.65
2023-10-10T07:13:30.390Z,6.82
2023-10-10T07:15:57.820Z,7.13
2023-10-10T07:18:24.722Z,8.32
2023-10-10T07:21:09.967Z,7.90
2023-10-10T07:23:40.246Z,7.93
2023-10-10T07:26:19.460Z,8.05
2023-10-10T07:28:49.656Z,7.68
2023-10-10T07:31:22.492Z,8.63
2023-10-10T07:34:16.861Z,7.82
2023-10-10T07:36:51.423Z,7.93
2023-10-10T07:39:33.579Z,7.88
2023-10-10T07:42:00.317Z,8.52
2023-10-10T07:44:27.213Z,8.20
2023-10-10T07:47:32.509Z,9.13
2023-10-10T07:50:09.837Z,8.82
2023-10-10T07:52:40.624Z,8.18
2023-10-10T07:55:07.642Z,8.57
2023-10-10T07:57:52.865Z,7.78
2023-10-10T08:00:19.956Z,8.00
2023-10-10T08:02:51.299Z,8.07
2023-10-10T08:05:21.954Z,8.18
2023-10-10T08:07:48.874Z,7.18
2023-10-10T08:10:31.317Z,7.03
2023-10-10T08:12:58.900Z,7.40
2023-10-10T08:15:29.942Z,6.63
2023-10-10T08:17:59.741Z,6.97
2023-10-10T08:20:37.952Z,6.32
2023-10-10T08:23:05.877Z,6.70
2023-10-10T08:25:33.991Z,6.32
2023-10-10T08:28:01.446Z,6.40
2023-10-10T08:30:28.546Z,5.85
2023-10-10T08:33:00.151Z,5.72
2023-10-10T08:35:30.662Z,5.38
2023-10-10T08:37:58.255Z,5.10
2023-10-10T08:40:31.703Z,5.03
2023-10-10T08:42:59.678Z,4.65
2023-10-10T08:45:30.101Z,4.40
2023-10-10T08:48:02.216Z,4.22
2023-10-10T08:50:29.712Z,4.45
2023-10-10T08:52:56.684Z,4.15
2023-10-10T08:55:29.877Z,3.80
2023-10-10T08:57:57.151Z,3.95
2023-10-10T09:00:28.405Z,3.55
2023-10-10T09:02:58.198Z,4.20
2023-10-10T09:05:29.429Z,3.65
2023-10-10T09:08:07.004Z,3.83
2023-10-10T09:10:42.813Z,3.30
2023-10-10T09:13:11.221Z,3.50
2023-10-10T09:15:42.004Z,3.33
2023-10-10T09:18:18.499Z,3.72
2023-10-10T09:20:48.373Z,3.35
2023-10-10T09:23:26.848Z,3.10
2023-10-10T09:26:20.556Z,2.80
2023-10-10T09:28:56.923Z,3.58
2023-10-10T09:31:33.301Z,2.92
2023-10-10T09:34:06.762Z,2.90
2023-10-10T09:36:40.831Z,3.28
2023-10-10T09:39:12.529Z,3.72
2023-10-10T09:41:59.559Z,3.83
2023-10-10T09:44:27.162Z,3.75
2023-10-10T09:47:02.960Z,3.70
2023-10-10T09:49:49.975Z,4.22
2023-10-10T09:52:37.029Z,4.03
2023-10-10T09:55:15.403Z,4.35
2023-10-10T09:58:10.407Z,3.88
2023-10-10T10:00:38.906Z,4.18
2023-10-10T10:03:27.127Z,3.78
2023-10-10T10:06:22.887Z,4.88
2023-10-10T10:09:33.740Z,3.75
2023-10-10T10:12:34.163Z,4.13
2023-10-10T10:15:09.740Z,4.00
2023-10-10T10:18:13.239Z,4.03
2023-10-10T10:20:47.000Z,3.90
2023-10-10T10:23:27.508Z,4.00
2023-10-10T10:25:55.562Z,3.63
2023-10-10T10:28:29.654Z,4.10
2023-10-10T10:30:56.824Z,3.35
2023-10-10T10:33:25.006Z,3.15
2023-10-10T10:36:07.447Z,3.40
2023-10-10T10:38:40.664Z,3.25
2023-10-10T10:41:18.669Z,2.67
2023-10-10T10:43:52.163Z,3.28
2023-10-10T10:46:29.182Z,2.72
2023-10-10T10:49:06.642Z,2.67
2023-10-10T10:51:42.889Z,2.28
2023-10-10T10:54:10.406Z,2.40
2023-10-10T10:56:37.236Z,2.17
2023-10-10T10:59:16.455Z,2.40
2023-10-10T11:01:58.461Z,2.45
2023-10-10T11:04:32.575Z,2.58
2023-10-10T11:07:07.057Z,2.97
2023-10-10T11:09:35.515Z,2.53
2023-10-10T11:12:08.339Z,2.45
2023-10-10T11:14:46.704Z,2.38
2023-10-10T11:17:18.963Z,2.55
2023-10-10T11:19:55.445Z,2.42
2023-10-10T11:22:41.897Z,2.42
2023-10-10T11:25:13.487Z,2.72
2023-10-10T11:27:46.341Z,2.70
2023-10-10T11:30:20.483Z,2.58
2023-10-10T11:32:47.681Z,2.70
2023-10-10T11:35:24.699Z,2.45
2023-10-10T11:38:00.848Z,2.33
2023-10-10T11:40:31.454Z,2.80
2023-10-10T11:43:04.853Z,2.53
2023-10-10T11:45:40.199Z,3.00
2023-10-10T11:50:51.518Z,2.63
2023-10-10T11:53:28.739Z,2.60
2023-10-10T11:55:56.489Z,3.50
2023-10-10T11:58:36.825Z,3.13
2023-10-10T12:01:08.132Z,3.08
2023-10-10T12:03:43.777Z,3.33
2023-10-10T12:06:27.831Z,3.67
2023-10-10T12:08:54.608Z,3.17
2023-10-10T12:11:21.850Z,3.42
2023-10-10T12:13:52.987Z,3.22
2023-10-10T12:16:25.337Z,3.45
2023-10-10T12:18:54.611Z,3.53
2023-10-10T12:21:23.342Z,3.55
2023-10-10T12:24:02.064Z,3.58
2023-10-10T12:26:31.214Z,3.42
2023-10-10T12:28:58.620Z,3.70
2023-10-10T12:31:25.542Z,3.97
2023-10-10T12:33:55.031Z,3.75
2023-10-10T12:36:30.916Z,3.95
2023-10-10T12:39:00.529Z,4.18
2023-10-10T12:41:29.014Z,3.53
2023-10-10T12:43:56.060Z,4.45
2023-10-10T12:46:23.070Z,4.40
2023-10-10T12:48:52.599Z,4.45
2023-10-10T12:51:23.898Z,3.42
2023-10-10T12:54:00.952Z,3.72
2023-10-10T12:56:28.329Z,4.00
2023-10-10T12:59:05.166Z,4.50
2023-10-10T13:01:36.981Z,3.67
2023-10-10T13:04:09.482Z,4.25
2023-10-10T13:06:41.035Z,3.95
2023-10-10T13:09:09.793Z,4.70
2023-10-10T13:11:45.529Z,4.07
2023-10-10T13:14:19.808Z,3.80
2023-10-10T13:16:46.695Z,4.43
2023-10-10T13:19:14.157Z,4.63
2023-10-10T13:21:48.534Z,4.32
2023-10-10T13:24:16.459Z,4.75
2023-10-10T13:26:50.880Z,4.07
2023-10-10T13:29:18.539Z,4.40
2023-10-10T13:31:46.130Z,4.53
2023-10-10T13:34:15.296Z,4.40
2023-10-10T13:36:42.634Z,4.30
2023-10-10T13:39:14.803Z,4.82
2023-10-10T13:41:42.877Z,4.95
2023-10-10T13:44:12.081Z,4.47
2023-10-10T13:46:39.370Z,5.15
2023-10-10T13:49:10.007Z,4.85
2023-10-10T13:51:43.194Z,4.82
2023-10-10T13:54:09.983Z,5.68
2023-10-10T13:56:36.969Z,5.75
2023-10-10T13:59:04.029Z,5.50
2023-10-10T14:01:31.271Z,5.93
2023-10-10T14:04:06.030Z,6.30
2023-10-10T14:06:46.401Z,7.05
2023-10-10T14:09:23.012Z,6.38
2023-10-10T14:11:58.378Z,6.13
2023-10-10T14:16:52.310Z,7.30
2023-10-10T14:19:19.548Z,7.80
2023-10-10T14:21:49.019Z,7.57
2023-10-10T14:24:16.190Z,7.40
2023-10-10T14:26:46.242Z,8.25
2023-10-10T14:29:13.389Z,8.20
2023-10-10T14:31:44.543Z,7.93
2023-10-10T14:34:25.582Z,8.80
2023-10-10T14:36:54.527Z,9.73
2023-10-10T14:39:37.074Z,9.80
2023-10-10T14:42:04.166Z,10.43
2023-10-10T14:44:34.929Z,9.90
2023-10-10T14:47:03.914Z,9.93
2023-10-10T14:49:30.658Z,10.40
2023-10-10T14:52:04.143Z,10.35
2023-10-10T14:54:39.004Z,12.48
2023-10-10T14:57:06.191Z,12.32
2023-10-10T14:59:32.981Z,11.25
2023-10-10T15:02:01.088Z,10.93
2023-10-10T15:04:31.275Z,12.18
2023-10-10T15:06:59.314Z,11.80
2023-10-10T15:09:26.576Z,13.20
2023-10-10T15:11:59.957Z,12.88
2023-10-10T15:14:27.057Z,12.30
2023-10-10T15:16:55.156Z,12.32
2023-10-10T15:19:21.955Z,13.00
2023-10-10T15:21:51.117Z,13.57
2023-10-10T15:24:18.121Z,14.13
2023-10-10T15:26:49.776Z,14.68
2023-10-10T15:29:18.212Z,13.40
2023-10-10T15:31:46.159Z,13.60
2023-10-10T15:34:16.948Z,13.80
2023-10-10T15:36:45.334Z,12.75
2023-10-10T15:39:13.003Z,14.18
2023-10-10T15:41:42.169Z,13.75
2023-10-10T15:44:10.829Z,15.25
2023-10-10T15:46:41.233Z,15.13
2023-10-10T15:49:21.164Z,12.07
2023-10-10T15:51:57.557Z,13.57
2023-10-10T15:54:30.217Z,13.82
2023-10-10T15:56:56.839Z,15.15
2023-10-10T15:59:25.919Z,14.02
2023-10-10T16:01:53.721Z,14.30
2023-10-10T16:04:22.199Z,14.35
2023-10-10T16:06:51.295Z,15.48
2023-10-10T16:09:21.636Z,15.98
2023-10-10T16:11:54.925Z,14.55
2023-10-10T16:14:22.960Z,16.08
2023-10-10T16:16:50.166Z,16.08
2023-10-10T16:19:21.987Z,14.10
2023-10-10T16:21:49.653Z,15.00
2023-10-10T16:24:16.817Z,15.48
2023-10-10T16:26:44.660Z,16.27
2023-10-10T16:29:20.257Z,14.77
2023-10-10T16:31:47.644Z,14.98
2023-10-10T16:34:17.999Z,15.40
2023-10-10T16:36:49.557Z,14.30
2023-10-10T16:39:16.344Z,14.82
2023-10-10T16:41:44.227Z,14.98
2023-10-10T16:44:15.510Z,15.75
2023-10-10T16:46:42.769Z,15.35
2023-10-10T16:49:10.172Z,14.63
2023-10-10T16:51:37.150Z,15.75
2023-10-10T16:54:07.820Z,17.02
2023-10-10T16:56:37.553Z,14.75
2023-10-10T16:59:05.804Z,14.73
2023-10-10T17:01:33.310Z,15.68
2023-10-10T17:04:01.429Z,14.88
2023-10-10T17:06:30.147Z,15.02
2023-10-10T17:09:00.347Z,14.65
2023-10-10T17:11:27.753Z,13.95
2023-10-10T17:13:58.674Z,15.07
2023-10-10T17:16:33.280Z,14.15
2023-10-10T17:21:31.511Z,14.93
2023-10-10T17:23:58.198Z,13.43
2023-10-10T17:26:25.549Z,13.55
2023-10-10T17:28:54.703Z,11.88
2023-10-10T17:31:25.076Z,13.02
2023-10-10T17:33:53.393Z,12.07
2023-10-10T17:36:21.315Z,11.88
2023-10-10T17:38:48.575Z,13.52
2023-10-10T17:41:16.291Z,13.15
2023-10-10T17:43:42.970Z,13.38
2023-10-10T17:46:16.347Z,12.00
2023-10-10T17:48:46.186Z,11.95
2023-10-10T17:51:16.417Z,11.10
2023-10-10T17:53:43.762Z,11.38
2023-10-10T17:56:13.983Z,11.27
2023-10-10T17:58:41.671Z,10.27
2023-10-10T18:01:12.205Z,11.55
2023-10-10T18:03:43.128Z,10.48
2023-10-10T18:06:22.576Z,11.00
2023-10-10T18:08:51.091Z,9.90
2023-10-10T18:11:18.104Z,10.98
2023-10-10T18:13:45.675Z,10.90
2023-10-10T18:16:12.972Z,9.65
2023-10-10T18:18:42.969Z,8.77
2023-10-10T18:21:11.148Z,8.80
2023-10-10T18:23:38.754Z,9.98
2023-10-10T18:26:15.962Z,9.73
2023-10-10T18:28:43.259Z,9.48
2023-10-10T18:31:17.087Z,8.23
2023-10-10T18:33:44.045Z,9.10
2023-10-10T18:36:11.539Z,8.63
2023-10-10T18:38:38.857Z,7.82
2023-10-10T18:41:05.676Z,8.43
2023-10-10T18:43:32.963Z,7.75
2023-10-10T18:46:01.853Z,8.32
2023-10-10T18:48:34.145Z,7.60
2023-10-10T18:51:02.058Z,7.68
2023-10-10T18:53:28.837Z,7.30
2023-10-10T18:55:56.352Z,7.15
2023-10-10T18:58:29.843Z,7.70
2023-10-10T19:00:56.735Z,7.82
2023-10-10T19:03:24.127Z,7.18
2023-10-10T19:05:53.943Z,6.85
2023-10-10T19:08:21.945Z,7.03
2023-10-10T19:10:51.890Z,6.88
2023-10-10T19:13:19.055Z,6.70
2023-10-10T19:15:48.810Z,7.07
2023-10-10T19:18:19.978Z,6.68
2023-10-10T19:20:49.907Z,6.22
2023-10-10T19:23:19.284Z,6.75
2023-10-10T19:25:49.119Z,6.95
2023-10-10T19:28:17.467Z,6.82
2023-10-10T19:30:45.924Z,6.45
2023-10-10T19:33:16.143Z,5.57
2023-10-10T19:35:46.630Z,6.00
2023-10-10T19:38:13.782Z,6.28
2023-10-10T19:40:44.808Z,6.53
2023-10-10T19:43:13.857Z,6.97
2023-10-10T19:45:41.612Z,5.68
2023-10-10T19:48:08.730Z,5.63
2023-10-10T19:50:43.333Z,6.38
2023-10-10T19:53:11.390Z,5.32
2023-10-10T19:55:41.180Z,5.78
2023-10-10T19:58:11.026Z,5.13
2023-10-10T20:00:43.393Z,5.75
2023-10-10T20:03:13.782Z,5.93
2023-10-10T20:05:42.599Z,6.18
2023-10-10T20:08:12.119Z,5.22
2023-10-10T20:13:07.006Z,5.70
2023-10-10T20:15:40.846Z,6.13
2023-10-10T20:18:09.613Z,4.93
2023-10-10T20:20:40.866Z,5.63
2023-10-10T20:23:11.228Z,5.20
2023-10-10T20:25:42.103Z,5.20
2023-10-10T20:28:11.801Z,5.18
2023-10-10T20:30:45.006Z,5.63
2023-10-10T20:33:16.546Z,5.80
2023-10-10T20:35:45.475Z,5.00
2023-10-10T20:38:13.781Z,4.97
2023-10-10T20:40:44.303Z,5.78
2023-10-10T20:43:12.118Z,5.25
2023-10-10T20:45:39.376Z,5.63
2023-10-10T20:48:13.852Z,5.15
2023-10-10T20:50:46.757Z,5.53
2023-10-10T20:53:13.641Z,5.38
2023-10-10T20:55:42.691Z,5.53
2023-10-10T20:58:11.846Z,4.95
2023-10-10T21:00:39.682Z,5.32
2023-10-10T21:03:10.441Z,4.75
2023-10-10T21:05:40.339Z,5.18
2023-10-10T21:08:08.493Z,5.25
2023-10-10T21:10:35.573Z,4.68
2023-10-10T21:13:03.002Z,4.45
2023-10-10T21:15:31.308Z,5.03
2023-10-10T21:18:00.878Z,4.60
2023-10-10T21:20:37.846Z,5.15
2023-10-10T21:23:12.456Z,5.40
2023-10-10T21:25:42.200Z,4.70
2023-10-10T21:28:08.848Z,4.70
2023-10-10T21:30:39.241Z,5.10
2023-10-10T21:33:07.782Z,4.78
2023-10-10T21:35:34.876Z,4.93
2023-10-10T21:38:03.022Z,4.80
2023-10-10T21:40:29.803Z,4.93
2023-10-10T21:42:56.986Z,5.95
2023-10-10T21:45:24.803Z,5.10
2023-10-10T21:47:56.771Z,5.18
2023-10-10T21:50:24.437Z,5.18
2023-10-10T21:52:51.998Z,5.55
2023-10-10T21:55:22.511Z,5.53
2023-10-10T21:57:50.862Z,5.10
2023-10-10T22:00:22.402Z,5.53
2023-10-10T22:02:50.852Z,5.05
2023-10-10T22:05:19.773Z,5.53
2023-10-10T22:07:48.143Z,5.18
2023-10-10T22:10:21.047Z,5.90
2023-10-10T22:12:50.058Z,5.15
2023-10-10T22:15:16.628Z,4.82
2023-10-10T22:17:43.963Z,4.60
2023-10-10T22:20:12.603Z,5.03
2023-10-10T22:22:43.133Z,4.68
2023-10-10T22:25:12.152Z,4.50
2023-10-10T22:27:40.294Z,4.68
2023-10-10T22:30:15.019Z,4.97
2023-10-10T22:32:46.017Z,5.00
2023-10-10T22:35:13.545Z,4.35
2023-10-10T22:37:41.039Z,4.95
2023-10-10T22:40:12.600Z,4.53
2023-10-10T22:42:39.446Z,4.82
2023-10-10T22:45:10.955Z,4.55
2023-10-10T22:47:38.990Z,5.78
2023-10-10T22:50:09.108Z,4.50
2023-10-10T22:52:38.988Z,4.60
2023-10-10T22:55:08.064Z,4.53
2023-10-10T22:57:35.454Z,4.60
2023-10-10T23:00:07.220Z,4.60
2023-10-10T23:02:34.611Z,5.22
2023-10-10T23:05:01.397Z,5.25
2023-10-10T23:07:28.038Z,4.72
2023-10-10T23:09:54.609Z,4.53
2023-10-10T23:12:21.274Z,5.10
2023-10-10T23:14:47.978Z,4.57
2023-10-10T23:17:14.792Z,4.03
2023-10-10T23:19:41.594Z,4.63
2023-10-10T23:22:08.843Z,4.78
2023-10-10T23:24:35.651Z,5.25
2023-10-10T23:27:02.504Z,4.47
2023-10-10T23:29:29.307Z,4.85
2023-10-10T23:31:58.572Z,4.50
2023-10-10T23:34:25.390Z,5.72
2023-10-10T23:36:52.215Z,4.90
2023-10-10T23:39:19.176Z,6.35
2023-10-10T23:41:48.041Z,5.03
2023-10-10T23:44:15.018Z,4.70
2023-10-10T23:46:47.218Z,5.40
2023-10-10T23:49:14.553Z,5.28
2023-10-10T23:51:41.497Z,4.70
2023-10-10T23:54:08.354Z,4.88
2023-10-10T23:56:35.223Z,5.10
2023-10-10T23:59:03.282Z,5.50
